Corwin Springs, Montana
Current Conditions -  °F | °C
As of 11:53 AM on Thursday 30 Oct 2014 (Local Time) from KLVM Reporting Station
Few Clouds Few Clouds  
Wind Chill: 52°   Ceiling: Unl
Heat Index: 52°   Visibility: 10mi
Dew Point: 29°   Wind: 5mph
Humidity: 41%   Direction: 90°E
Pressure: 30.3"   Gusts: NA
Location:  45.0924°N, 110.236°W
Report Text: KLVM 301753Z AUTO 09004KT 10SM FEW120 11/M02 A3030 RMK AO2 SLP264 T01111017 10111 20000 58000
Loading
Personal Weather Stations






























Interactive Weather Map
Tropical Storm Tracking
New forecast layout! Learn more

10-Day Weather Forecast

Advertisements
Track Severe Weather on mobile